Time,TemperatureF,DewpointF,PressureIn,WindDirection,WindDirectionDegrees,WindSpeedMPH,WindSpeedGustMPH,Humidity,HourlyPrecipIn,Conditions,Clouds,dailyrainin,SoftwareType,DateUTC
2013-11-28 00:04:00,39.7,39.2,29.86,NNE,22,0.0,-999.0,98,-99.99,,,0.00,Acu-Link.com,2013-11-28 08:04:00,
2013-11-28 00:19:00,39.7,39.2,29.85,SE,135,0.0,-999.0,98,-99.99,,,0.00,Acu-Link.com,2013-11-28 08:19:00,
2013-11-28 00:34:00,39.2,38.7,29.85,SSW,202,0.0,-999.0,98,-99.99,,,0.00,Acu-Link.com,2013-11-28 08:34:00,
2013-11-28 00:49:00,38.7,38.2,29.87,ESE,112,0.0,-999.0,98,-99.99,,,0.00,Acu-Link.com,2013-11-28 08:49:00,
2013-11-28 01:05:00,39.0,38.5,29.86,WNW,292,0.0,-999.0,98,-99.99,,,0.00,Acu-Link.com,2013-11-28 09:05:00,
2013-11-28 01:20:00,38.5,38.0,29.86,NNW,337,0.0,-999.0,98,-99.99,,,0.00,Acu-Link.com,2013-11-28 09:20:00,
2013-11-28 01:35:00,37.9,37.4,29.86,SE,135,0.0,-999.0,98,-99.99,,,0.00,Acu-Link.com,2013-11-28 09:35:00,
2013-11-28 01:50:00,37.9,37.4,29.88,NE,45,0.0,-999.0,98,-99.99,,,0.00,Acu-Link.com,2013-11-28 09:50:00,
2013-11-28 02:05:00,38.7,38.2,29.87,SSE,157,0.0,-999.0,98,-99.99,,,0.00,Acu-Link.com,2013-11-28 10:05:00,
2013-11-28 02:21:00,39.0,38.5,29.88,ENE,67,0.0,-999.0,98,-99.99,,,0.00,Acu-Link.com,2013-11-28 10:21:00,
2013-11-28 02:36:00,39.0,38.5,29.88,ESE,112,0.0,-999.0,98,-99.99,,,0.00,Acu-Link.com,2013-11-28 10:36:00,
2013-11-28 02:51:00,38.1,37.6,29.89,East,90,0.0,-999.0,98,-99.99,,,0.00,Acu-Link.com,2013-11-28 10:51:00,
2013-11-28 03:07:00,37.4,36.9,29.89,SE,135,0.0,-999.0,98,-99.99,,,0.00,Acu-Link.com,2013-11-28 11:07:00,
2013-11-28 03:22:00,36.5,36.0,29.90,ESE,112,0.0,-999.0,98,-99.99,,,0.00,Acu-Link.com,2013-11-28 11:22:00,
2013-11-28 03:37:00,36.5,36.0,29.89,West,270,0.0,-999.0,98,-99.99,,,0.00,Acu-Link.com,2013-11-28 11:37:00,
2013-11-28 03:52:00,36.5,36.0,29.88,SE,135,0.0,-999.0,98,-99.99,,,0.00,Acu-Link.com,2013-11-28 11:52:00,
2013-11-28 04:08:00,36.7,36.2,29.90,NNW,337,0.0,-999.0,98,-99.99,,,0.00,Acu-Link.com,2013-11-28 12:08:00,
2013-11-28 04:23:00,36.7,36.2,29.89,SE,135,0.0,-999.0,98,-99.99,,,0.00,Acu-Link.com,2013-11-28 12:23:00,
2013-11-28 04:38:00,36.3,35.8,29.89,West,270,0.0,-999.0,98,-99.99,,,0.00,Acu-Link.com,2013-11-28 12:38:00,
2013-11-28 04:53:00,36.0,35.5,29.90,ESE,112,0.0,-999.0,98,-99.99,,,0.00,Acu-Link.com,2013-11-28 12:53:00,
2013-11-28 05:08:00,36.0,35.5,29.90,East,90,0.0,-999.0,98,-99.99,,,0.00,Acu-Link.com,2013-11-28 13:08:00,
2013-11-28 05:23:00,35.6,35.1,29.90,WSW,247,0.0,-999.0,98,-99.99,,,0.00,Acu-Link.com,2013-11-28 13:23:00,
2013-11-28 05:39:00,34.9,34.4,29.91,West,270,0.0,-999.0,98,-99.99,,,0.00,Acu-Link.com,2013-11-28 13:39:00,
2013-11-28 05:54:00,34.3,33.8,29.90,SE,135,0.0,-999.0,98,-99.99,,,0.00,Acu-Link.com,2013-11-28 13:54:00,
2013-11-28 06:09:00,34.2,33.7,29.92,SE,135,0.0,-999.0,98,-99.99,,,0.00,Acu-Link.com,2013-11-28 14:09:00,
2013-11-28 06:24:00,33.3,32.8,29.91,NE,45,0.0,-999.0,98,-99.99,,,0.00,Acu-Link.com,2013-11-28 14:24:00,
2013-11-28 06:40:00,33.4,32.9,29.92,ESE,112,0.0,-999.0,98,-99.99,,,0.00,Acu-Link.com,2013-11-28 14:40:00,
2013-11-28 06:55:00,33.6,33.1,29.92,NW,315,0.0,-999.0,98,-99.99,,,0.00,Acu-Link.com,2013-11-28 14:55:00,
2013-11-28 07:10:00,33.3,32.8,29.92,SE,135,0.0,-999.0,98,-99.99,,,0.00,Acu-Link.com,2013-11-28 15:10:00,
2013-11-28 07:25:00,32.7,32.2,29.94,ESE,112,0.0,-999.0,98,-99.99,,,0.00,Acu-Link.com,2013-11-28 15:25:00,
2013-11-28 07:40:00,32.5,32.0,29.94,NE,45,0.0,-999.0,98,-99.99,,,0.00,Acu-Link.com,2013-11-28 15:40:00,
2013-11-28 07:55:00,32.7,32.2,29.95,NE,45,0.0,-999.0,98,-99.99,,,0.00,Acu-Link.com,2013-11-28 15:55:00,
2013-11-28 08:11:00,33.6,33.1,29.94,NNE,22,0.0,-999.0,98,-99.99,,,0.00,Acu-Link.com,2013-11-28 16:11:00,
2013-11-28 08:26:00,34.2,33.7,29.96,ESE,112,0.0,-999.0,98,-99.99,,,0.00,Acu-Link.com,2013-11-28 16:26:00,
2013-11-28 08:41:00,34.5,34.0,29.96,WSW,247,0.0,-999.0,98,-99.99,,,0.00,Acu-Link.com,2013-11-28 16:41:00,
2013-11-28 08:56:00,35.6,35.1,29.95,SSE,157,0.0,-999.0,98,-99.99,,,0.00,Acu-Link.com,2013-11-28 16:56:00,
2013-11-28 09:12:00,36.0,35.5,29.97,WSW,247,0.0,-999.0,98,-99.99,,,0.00,Acu-Link.com,2013-11-28 17:12:00,
2013-11-28 09:27:00,36.9,36.4,29.97,North,0,0.0,-999.0,98,-99.99,,,0.00,Acu-Link.com,2013-11-28 17:27:00,
2013-11-28 09:42:00,41.0,40.5,29.95,NNE,22,0.0,-999.0,98,-99.99,,,0.00,Acu-Link.com,2013-11-28 17:42:00,
2013-11-28 09:57:00,42.6,42.1,29.95,NNE,22,0.0,-999.0,98,-99.99,,,0.00,Acu-Link.com,2013-11-28 17:57:00,
2013-11-28 10:13:00,45.5,45.0,29.95,SSE,157,0.0,-999.0,98,-99.99,,,0.00,Acu-Link.com,2013-11-28 18:13:00,
2013-11-28 10:28:00,46.8,46.3,29.95,SE,135,0.0,-999.0,98,-99.99,,,0.00,Acu-Link.com,2013-11-28 18:28:00,
2013-11-28 10:43:00,48.6,48.1,29.94,SW,225,0.0,-999.0,98,-99.99,,,0.00,Acu-Link.com,2013-11-28 18:43:00,
2013-11-28 10:58:00,50.4,49.9,29.95,East,90,0.0,-999.0,98,-99.99,,,0.00,Acu-Link.com,2013-11-28 18:58:00,
2013-11-28 11:14:00,51.3,50.8,29.95,WSW,247,0.0,-999.0,98,-99.99,,,0.00,Acu-Link.com,2013-11-28 19:14:00,
2013-11-28 11:29:00,52.7,52.2,29.93,West,270,1.7,-999.0,98,-99.99,,,0.00,Acu-Link.com,2013-11-28 19:29:00,
2013-11-28 11:44:00,53.8,53.2,29.93,WNW,292,1.1,-999.0,98,-99.99,,,0.00,Acu-Link.com,2013-11-28 19:44:00,
2013-11-28 12:00:00,56.1,55.5,29.91,South,180,1.1,-999.0,98,-99.99,,,0.00,Acu-Link.com,2013-11-28 20:00:00,
2013-11-28 12:15:00,56.1,55.5,29.91,WSW,247,2.7,-999.0,98,-99.99,,,0.00,Acu-Link.com,2013-11-28 20:15:00,
2013-11-28 12:30:00,56.8,56.2,29.91,NNW,337,0.0,-999.0,98,-99.99,,,0.00,Acu-Link.com,2013-11-28 20:30:00,
2013-11-28 12:46:00,58.5,57.9,29.91,ESE,112,0.0,-999.0,98,-99.99,,,0.00,Acu-Link.com,2013-11-28 20:46:00,
2013-11-28 13:01:00,59.7,58.8,29.91,West,270,2.7,-999.0,97,-99.99,,,0.00,Acu-Link.com,2013-11-28 21:01:00,
2013-11-28 13:16:00,60.8,56.9,29.90,WSW,247,2.2,-999.0,87,-99.99,,,0.00,Acu-Link.com,2013-11-28 21:16:00,
2013-11-28 13:31:00,61.7,56.5,29.88,SW,225,2.2,-999.0,83,-99.99,,,0.00,Acu-Link.com,2013-11-28 21:31:00,
2013-11-28 13:46:00,61.9,56.3,29.89,SW,225,2.7,-999.0,82,-99.99,,,0.00,Acu-Link.com,2013-11-28 21:46:00,
2013-11-28 14:02:00,62.8,58.9,29.88,South,180,0.0,-999.0,87,-99.99,,,0.00,Acu-Link.com,2013-11-28 22:02:00,
2013-11-28 14:17:00,63.3,57.0,29.88,SW,225,0.0,-999.0,80,-99.99,,,0.00,Acu-Link.com,2013-11-28 22:17:00,
2013-11-28 14:32:00,63.1,58.5,29.88,WSW,247,2.2,-999.0,85,-99.99,,,0.00,Acu-Link.com,2013-11-28 22:32:00,
2013-11-28 14:47:00,63.7,59.8,29.90,WSW,247,1.7,-999.0,87,-99.99,,,0.00,Acu-Link.com,2013-11-28 22:47:00,
2013-11-28 15:03:00,64.0,56.3,29.89,West,270,3.7,-999.0,76,-99.99,,,0.00,Acu-Link.com,2013-11-28 23:03:00,
2013-11-28 15:18:00,63.3,57.0,29.89,NNW,337,2.7,-999.0,80,-99.99,,,0.00,Acu-Link.com,2013-11-28 23:18:00,
2013-11-28 15:33:00,61.0,59.3,29.90,NNE,22,5.8,-999.0,94,-99.99,,,0.00,Acu-Link.com,2013-11-28 23:33:00,
2013-11-28 15:48:00,61.2,58.9,29.92,NNE,22,1.7,-999.0,92,-99.99,,,0.00,Acu-Link.com,2013-11-28 23:48:00,
2013-11-28 16:03:00,59.2,58.6,29.92,SW,225,0.0,-999.0,98,-99.99,,,0.00,Acu-Link.com,2013-11-29 00:03:00,
2013-11-28 16:18:00,56.8,56.2,29.92,SW,225,0.0,-999.0,98,-99.99,,,0.00,Acu-Link.com,2013-11-29 00:18:00,
2013-11-28 16:34:00,55.8,55.2,29.93,SSW,202,0.0,-999.0,98,-99.99,,,0.00,Acu-Link.com,2013-11-29 00:34:00,
2013-11-28 16:49:00,53.8,53.2,29.95,ESE,112,0.0,-999.0,98,-99.99,,,0.00,Acu-Link.com,2013-11-29 00:49:00,
2013-11-28 17:04:00,51.4,50.9,29.95,NW,315,0.0,-999.0,98,-99.99,,,0.00,Acu-Link.com,2013-11-29 01:04:00,
2013-11-28 17:19:00,49.8,49.3,29.97,ESE,112,0.0,-999.0,98,-99.99,,,0.00,Acu-Link.com,2013-11-29 01:19:00,
2013-11-28 17:34:00,48.0,47.5,29.97,ESE,112,0.0,-999.0,98,-99.99,,,0.00,Acu-Link.com,2013-11-29 01:34:00,
2013-11-28 17:49:00,46.9,46.4,29.97,East,90,0.0,-999.0,98,-99.99,,,0.00,Acu-Link.com,2013-11-29 01:49:00,
2013-11-28 18:04:00,45.9,45.4,29.98,NE,45,0.0,-999.0,98,-99.99,,,0.00,Acu-Link.com,2013-11-29 02:04:00,
2013-11-28 18:20:00,45.0,44.5,29.98,WSW,247,0.0,-999.0,98,-99.99,,,0.00,Acu-Link.com,2013-11-29 02:20:00,
2013-11-28 18:35:00,44.2,43.7,30.00,ENE,67,0.0,-999.0,98,-99.99,,,0.00,Acu-Link.com,2013-11-29 02:35:00,
2013-11-28 18:50:00,43.7,43.2,29.99,NNW,337,0.0,-999.0,98,-99.99,,,0.00,Acu-Link.com,2013-11-29 02:50:00,
2013-11-28 19:06:00,43.2,42.7,30.01,East,90,0.0,-999.0,98,-99.99,,,0.00,Acu-Link.com,2013-11-29 03:06:00,
2013-11-28 19:21:00,43.0,42.5,30.00,East,90,0.0,-999.0,98,-99.99,,,0.00,Acu-Link.com,2013-11-29 03:21:00,
2013-11-28 19:36:00,42.4,41.9,30.00,ESE,112,0.0,-999.0,98,-99.99,,,0.00,Acu-Link.com,2013-11-29 03:36:00,
2013-11-28 19:51:00,41.9,41.4,30.02,NW,315,0.0,-999.0,98,-99.99,,,0.00,Acu-Link.com,2013-11-29 03:51:00,
2013-11-28 20:07:00,41.4,40.9,30.02,ESE,112,0.0,-999.0,98,-99.99,,,0.00,Acu-Link.com,2013-11-29 04:07:00,
2013-11-28 20:22:00,41.0,40.5,30.04,NE,45,0.0,-999.0,98,-99.99,,,0.00,Acu-Link.com,2013-11-29 04:22:00,
2013-11-28 20:37:00,40.5,40.0,30.03,ESE,112,0.0,-999.0,98,-99.99,,,0.00,Acu-Link.com,2013-11-29 04:37:00,
2013-11-28 20:52:00,40.3,39.8,30.03,NNE,22,0.0,-999.0,98,-99.99,,,0.00,Acu-Link.com,2013-11-29 04:52:00,
2013-11-28 21:07:00,39.9,39.4,30.04,ESE,112,0.0,-999.0,98,-99.99,,,0.00,Acu-Link.com,2013-11-29 05:07:00,
2013-11-28 21:22:00,39.6,39.1,30.04,North,0,0.0,-999.0,98,-99.99,,,0.00,Acu-Link.com,2013-11-29 05:22:00,
2013-11-28 21:38:00,39.4,38.9,30.03,ESE,112,0.0,-999.0,98,-99.99,,,0.00,Acu-Link.com,2013-11-29 05:38:00,
2013-11-28 21:53:00,38.8,38.3,30.04,NW,315,0.0,-999.0,98,-99.99,,,0.00,Acu-Link.com,2013-11-29 05:53:00,
2013-11-28 22:08:00,38.3,37.8,30.05,West,270,0.0,-999.0,98,-99.99,,,0.00,Acu-Link.com,2013-11-29 06:08:00,
2013-11-28 22:23:00,37.9,37.4,30.06,West,270,0.0,-999.0,98,-99.99,,,0.00,Acu-Link.com,2013-11-29 06:23:00,
2013-11-28 22:39:00,37.9,37.4,30.06,ESE,112,0.0,-999.0,98,-99.99,,,0.00,Acu-Link.com,2013-11-29 06:39:00,
2013-11-28 22:54:00,37.4,36.9,30.06,ESE,112,0.0,-999.0,98,-99.99,,,0.00,Acu-Link.com,2013-11-29 06:54:00,
2013-11-28 23:09:00,37.9,37.4,30.06,ESE,112,0.0,-999.0,98,-99.99,,,0.00,Acu-Link.com,2013-11-29 07:09:00,
2013-11-28 23:24:00,38.5,38.0,30.08,SE,135,0.0,-999.0,98,-99.99,,,0.00,Acu-Link.com,2013-11-29 07:24:00,
2013-11-28 23:39:00,38.3,37.8,30.07,SSW,202,0.0,-999.0,98,-99.99,,,0.00,Acu-Link.com,2013-11-29 07:39:00,
2013-11-28 23:54:00,37.4,36.9,30.08,WNW,292,0.0,-999.0,98,-99.99,,,0.00,Acu-Link.com,2013-11-29 07:54:00,